CD09 weather

Yoder Airstrip
Bennett, Colorado, United States

Public forecast

Using degrees Fahrenheit for public forecast. Weather courtesy of forecast.io.

METAR (pilot weather report)

Closest report is Front Range Airport, 6.5 nm (12.1 km) WSW. Retrieved 2019/04/26 03:36 UTC (0 seconds ago):

KFTG 260336Z AUTO 15008KT 10SM CLR 09/03 A3023 RMK AO2 T00940025

TAF (pilot weather forecast)

Forecast is more than 12 hours old.

Closest forecast is Denver International Airport, 12.4 nm (23.0 km) WNW. Retrieved 2019/04/25 00:42 UTC (1 day ago):

TAF KDEN 252339Z 2600/2706 11007KT P6SM FEW070 SCT220 FM260600 17012KT P6SM FEW220 FM261000 20010KT P6SM SKC FM261400 24008KT P6SM SCT200 FM261900 27010KT P6SM SCT080 BKN220 FM262300 28013KT P6SM VCTS SCT060CB BKN120 PROB30 2623/2702 VRB23G33KT -TSRA BKN060CB